Time;durP1;ratioP1;P1;durP2;ratioP2;P2;SDS_P1;SDS_P2;PMS_P1;PMS_P2;Temp;Humidity;BMP_temperature;BMP_pressure;BME280_temperature;BME280_humidity;BME280_pressure;Samples;Min_cycle;Max_cycle;Signal;HPM_P1;HPM_P2
2022/05/23 00:00:17;;;;;;;4.47;2.80;;;;;;;;;;5025416;28;20187;-68
2022/05/23 00:02:44;;;;;;;3.47;2.50;;;;;;;;;;5025323;28;20191;-68
2022/05/23 00:05:10;;;;;;;3.23;2.60;;;;;;;;;;5024653;28;20650;-68
2022/05/23 00:07:38;;;;;;;3.43;3.00;;;;;;;;;;5026124;28;20211;-68
2022/05/23 00:10:05;;;;;;;5.37;2.97;;;;;;;;;;5029934;28;20183;-68
2022/05/23 00:12:31;;;;;;;3.07;2.77;;;;;;;;;;5029292;28;20186;-68
2022/05/23 00:14:57;;;;;;;4.30;2.90;;;;;;;;;;5024479;28;20626;-69
2022/05/23 00:17:23;;;;;;;2.37;2.17;;;;;;;;;;5024565;28;20214;-68
2022/05/23 00:19:50;;;;;;;3.80;2.27;;;;;;;;;;5026288;28;20193;-68
2022/05/23 00:22:16;;;;;;;3.67;2.20;;;;;;;;;;5024937;28;20197;-69
2022/05/23 00:24:42;;;;;;;3.60;2.27;;;;;;;;;;5024200;28;20199;-69
2022/05/23 00:27:09;;;;;;;4.60;2.40;;;;;;;;;;5024143;28;20198;-67
2022/05/23 00:29:35;;;;;;;5.37;2.57;;;;;;;;;;5024637;28;20226;-68
2022/05/23 00:37:30;;;;;;;3.67;2.10;;;;;;;;;;5024274;28;20225;-68
2022/05/23 00:39:56;;;;;;;3.90;2.53;;;;;;;;;;5030154;28;20197;-68
2022/05/23 00:45:13;;;;;;;4.27;2.43;;;;;;;;;;5027715;28;20189;-69
2022/05/23 00:47:39;;;;;;;2.70;2.50;;;;;;;;;;5027189;28;20202;-68
2022/05/23 00:50:05;;;;;;;3.77;2.40;;;;;;;;;;5006811;28;20534;-68
2022/05/23 00:52:33;;;;;;;3.23;2.23;;;;;;;;;;5026647;28;20626;-69
2022/05/23 00:55:00;;;;;;;5.87;3.20;;;;;;;;;;5027653;28;20255;-68
2022/05/23 00:57:28;;;;;;;3.90;2.73;;;;;;;;;;5025948;28;20215;-68
2022/05/23 00:59:55;;;;;;;3.90;2.70;;;;;;;;;;5028182;28;21035;-68
2022/05/23 01:02:21;;;;;;;5.33;2.87;;;;;;;;;;5031977;28;20749;-67
2022/05/23 01:04:47;;;;;;;2.83;2.40;;;;;;;;;;5036020;28;20186;-69
2022/05/23 01:07:13;;;;;;;3.60;2.77;;;;;;;;;;5035110;28;20187;-65
2022/05/23 01:09:39;;;;;;;3.47;3.03;;;;;;;;;;5024208;28;20183;-68
2022/05/23 01:12:06;;;;;;;3.13;2.90;;;;;;;;;;5008442;28;20257;-70
2022/05/23 01:14:46;;;;;;;5.20;3.13;;;;;;;;;;5025954;28;20195;-67
2022/05/23 01:17:12;;;;;;;3.50;3.20;;;;;;;;;;5023892;28;20707;-69
2022/05/23 01:19:38;;;;;;;4.63;3.43;;;;;;;;;;5024427;28;20198;-68
2022/05/23 01:22:24;;;;;;;3.30;3.00;;;;;;;;;;5024627;28;20190;-67
2022/05/23 01:25:14;;;;;;;3.17;2.87;;;;;;;;;;5014291;28;20289;-68
2022/05/23 01:27:41;;;;;;;3.73;3.00;;;;;;;;;;5023475;28;20215;-70
2022/05/23 01:30:08;;;;;;;3.87;3.53;;;;;;;;;;5023955;28;20325;-68
2022/05/23 01:32:34;;;;;;;3.70;3.40;;;;;;;;;;5034319;28;20186;-67
2022/05/23 01:35:00;;;;;;;4.30;3.23;;;;;;;;;;5039197;28;20187;-68
2022/05/23 01:37:26;;;;;;;4.20;3.60;;;;;;;;;;5041631;28;20222;-69
2022/05/23 01:39:52;;;;;;;3.83;3.30;;;;;;;;;;5034149;28;20713;-69
2022/05/23 01:42:18;;;;;;;4.60;3.30;;;;;;;;;;5027934;28;20263;-68
2022/05/23 01:44:44;;;;;;;4.10;3.13;;;;;;;;;;5027082;28;20179;-68
2022/05/23 01:47:16;;;;;;;3.83;3.30;;;;;;;;;;5030657;28;20222;-68
2022/05/23 01:49:42;;;;;;;4.20;3.67;;;;;;;;;;5027740;28;20201;-70
2022/05/23 01:52:08;;;;;;;4.10;3.53;;;;;;;;;;5028010;28;20194;-69
2022/05/23 01:54:35;;;;;;;4.87;3.57;;;;;;;;;;5027138;28;20187;-68
2022/05/23 01:57:01;;;;;;;4.13;3.50;;;;;;;;;;5029240;28;20257;-69
2022/05/23 02:02:12;;;;;;;4.40;3.70;;;;;;;;;;5027738;28;20267;-70
2022/05/23 02:04:38;;;;;;;4.30;3.90;;;;;;;;;;5028787;28;20191;-68
2022/05/23 02:07:05;;;;;;;5.00;4.00;;;;;;;;;;5040066;28;20285;-69
2022/05/23 02:09:31;;;;;;;7.20;3.80;;;;;;;;;;5034665;28;20217;-67
2022/05/23 02:11:58;;;;;;;4.90;3.97;;;;;;;;;;5027234;28;20198;-68
2022/05/23 02:14:24;;;;;;;5.93;4.30;;;;;;;;;;5028256;28;20182;-69
2022/05/23 02:16:50;;;;;;;6.63;4.47;;;;;;;;;;5028132;28;20298;-69
2022/05/23 02:19:17;;;;;;;5.00;4.47;;;;;;;;;;5009294;28;20210;-68
2022/05/23 02:21:42;;;;;;;4.47;4.07;;;;;;;;;;5033925;28;20282;-68
2022/05/23 02:24:08;;;;;;;5.80;4.43;;;;;;;;;;5028462;28;20740;-68
2022/05/23 02:26:35;;;;;;;4.87;4.47;;;;;;;;;;5026824;28;20179;-68
2022/05/23 02:29:01;;;;;;;5.77;4.80;;;;;;;;;;5027330;28;20670;-69
2022/05/23 02:31:28;;;;;;;4.93;4.20;;;;;;;;;;5016222;28;20191;-69
2022/05/23 02:33:54;;;;;;;7.07;4.50;;;;;;;;;;5008669;28;20198;-70
2022/05/23 02:36:20;;;;;;;5.63;4.33;;;;;;;;;;5026997;28;20666;-69
2022/05/23 02:38:46;;;;;;;4.43;3.97;;;;;;;;;;5028900;28;20248;-69
2022/05/23 02:41:12;;;;;;;4.17;3.77;;;;;;;;;;5036575;28;20275;-69
2022/05/23 02:43:38;;;;;;;4.40;4.00;;;;;;;;;;5045710;28;20236;-69
2022/05/23 02:46:04;;;;;;;4.20;3.80;;;;;;;;;;5030593;28;20655;-70
2022/05/23 02:48:30;;;;;;;4.43;3.73;;;;;;;;;;5027708;28;20210;-69
2022/05/23 02:50:56;;;;;;;4.30;3.90;;;;;;;;;;5032022;28;20199;-69
2022/05/23 02:53:22;;;;;;;3.83;3.40;;;;;;;;;;5026838;28;20248;-69
2022/05/23 02:55:48;;;;;;;4.80;3.90;;;;;;;;;;5025948;28;20206;-67
2022/05/23 02:58:14;;;;;;;5.70;3.87;;;;;;;;;;5026268;28;20226;-70
2022/05/23 03:00:40;;;;;;;4.00;3.70;;;;;;;;;;5029708;28;20222;-70
2022/05/23 03:03:08;;;;;;;5.90;3.90;;;;;;;;;;5029132;28;20233;-67
2022/05/23 03:05:39;;;;;;;5.23;4.13;;;;;;;;;;5028446;28;20587;-69
2022/05/23 03:08:05;;;;;;;4.23;3.70;;;;;;;;;;5046033;28;20665;-69
2022/05/23 03:10:31;;;;;;;4.50;4.10;;;;;;;;;;5011698;28;20631;-67
2022/05/23 03:12:57;;;;;;;4.43;4.03;;;;;;;;;;5039950;28;20214;-69
2022/05/23 03:15:24;;;;;;;4.53;4.13;;;;;;;;;;5033813;28;20657;-67
2022/05/23 03:17:50;;;;;;;5.07;3.93;;;;;;;;;;5029791;28;20206;-67
2022/05/23 03:20:16;;;;;;;5.87;4.03;;;;;;;;;;5026250;28;20233;-68
2022/05/23 03:28:13;;;;;;;4.40;4.00;;;;;;;;;;5034123;28;20579;-68
2022/05/23 03:30:39;;;;;;;5.27;4.27;;;;;;;;;;5041977;28;20771;-69
2022/05/23 03:33:07;;;;;;;5.83;3.90;;;;;;;;;;5026670;28;20218;-69
2022/05/23 03:35:33;;;;;;;4.03;3.50;;;;;;;;;;5027384;28;20294;-67
2022/05/23 03:38:00;;;;;;;5.27;3.73;;;;;;;;;;5030741;28;20278;-69
2022/05/23 03:40:26;;;;;;;4.57;3.40;;;;;;;;;;5025928;28;20203;-66
2022/05/23 03:42:53;;;;;;;5.93;3.93;;;;;;;;;;5025714;28;20187;-70
2022/05/23 03:45:19;;;;;;;3.50;3.20;;;;;;;;;;5024879;28;20658;-67
2022/05/23 03:47:46;;;;;;;4.17;3.43;;;;;;;;;;5029388;28;20219;-69
2022/05/23 03:50:13;;;;;;;4.33;3.70;;;;;;;;;;5025499;28;20187;-67
2022/05/23 03:52:39;;;;;;;4.23;3.57;;;;;;;;;;5027571;28;20179;-70
2022/05/23 03:55:05;;;;;;;4.40;3.20;;;;;;;;;;5035160;28;20193;-68
2022/05/23 03:57:31;;;;;;;4.07;3.60;;;;;;;;;;5039282;28;20218;-68
2022/05/23 03:59:59;;;;;;;5.03;3.60;;;;;;;;;;5044563;28;20197;-69
2022/05/23 04:02:25;;;;;;;5.87;3.83;;;;;;;;;;5008215;28;20190;-68
2022/05/23 04:04:51;;;;;;;3.30;3.00;;;;;;;;;;5024509;28;20563;-68
2022/05/23 04:07:17;;;;;;;3.73;3.43;;;;;;;;;;5024986;28;20270;-68
2022/05/23 04:09:43;;;;;;;6.27;3.10;;;;;;;;;;5025006;28;20201;-67
2022/05/23 04:12:10;;;;;;;4.67;3.00;;;;;;;;;;5025424;28;20534;-69
2022/05/23 04:14:36;;;;;;;4.67;3.37;;;;;;;;;;5032260;28;20187;-67
2022/05/23 04:17:02;;;;;;;3.30;3.00;;;;;;;;;;5024692;28;20210;-69
2022/05/23 04:19:28;;;;;;;3.77;3.10;;;;;;;;;;5025030;28;20587;-69
2022/05/23 04:21:54;;;;;;;3.70;3.10;;;;;;;;;;5024945;28;20257;-69
2022/05/23 04:24:21;;;;;;;3.47;3.17;;;;;;;;;;5030532;28;20187;-68
2022/05/23 04:26:51;;;;;;;3.87;3.00;;;;;;;;;;5024648;28;20225;-68
2022/05/23 04:29:17;;;;;;;4.70;3.13;;;;;;;;;;5024504;28;20674;-67
2022/05/23 04:31:43;;;;;;;3.90;2.87;;;;;;;;;;5024669;28;20226;-69
2022/05/23 04:36:54;;;;;;;5.63;2.80;;;;;;;;;;5024349;28;20217;-68
2022/05/23 04:39:20;;;;;;;4.10;2.60;;;;;;;;;;5006742;28;20662;-68
2022/05/23 04:41:46;;;;;;;2.65;2.42;;;;;;;;;;5024374;28;20187;-68
2022/05/23 04:44:12;;;;;;;4.38;2.38;;;;;;;;;;5030484;28;20187;-68
2022/05/23 04:49:41;;;;;;;2.90;2.70;;;;;;;;;;5024381;28;20296;-68
2022/05/23 04:49:50;;;;;;;3.72;2.20;;;;;;;;;;5024183;28;20210;-68
2022/05/23 04:52:14;;;;;;;2.30;1.90;;;;;;;;;;5023417;28;20286;-68
2022/05/23 04:54:41;;;;;;;2.75;2.03;;;;;;;;;;5031968;28;20196;-69
2022/05/23 04:57:08;;;;;;;2.72;2.10;;;;;;;;;;5024290;28;20325;-69
2022/05/23 04:59:34;;;;;;;2.25;1.92;;;;;;;;;;5036474;28;20225;-68
2022/05/23 05:02:01;;;;;;;2.03;1.80;;;;;;;;;;5025844;28;20193;-68
2022/05/23 05:04:28;;;;;;;1.92;1.73;;;;;;;;;;5038441;28;20265;-69
2022/05/23 05:06:54;;;;;;;1.58;1.48;;;;;;;;;;5023268;28;20548;-68
2022/05/23 05:09:20;;;;;;;1.60;1.50;;;;;;;;;;5023717;28;20203;-68
2022/05/23 05:11:46;;;;;;;2.30;1.90;;;;;;;;;;5029596;28;20661;-68
2022/05/23 05:14:12;;;;;;;2.83;1.70;;;;;;;;;;5031044;28;20197;-69
2022/05/23 05:16:38;;;;;;;3.05;1.70;;;;;;;;;;5023524;28;20670;-69
2022/05/23 05:19:05;;;;;;;2.30;1.55;;;;;;;;;;5025274;28;20696;-69
2022/05/23 05:21:31;;;;;;;2.03;1.65;;;;;;;;;;5023793;28;20629;-69
2022/05/23 05:23:57;;;;;;;3.25;1.80;;;;;;;;;;5027074;28;20678;-68
2022/05/23 05:26:24;;;;;;;2.30;1.60;;;;;;;;;;5023905;28;20800;-69
2022/05/23 05:28:51;;;;;;;3.20;1.67;;;;;;;;;;5023633;28;20213;-68
2022/05/23 05:31:29;;;;;;;3.35;1.70;;;;;;;;;;5032141;28;20280;-67
2022/05/23 05:33:59;;;;;;;2.15;1.77;;;;;;;;;;5037769;28;20196;-68
2022/05/23 05:36:30;;;;;;;1.65;1.55;;;;;;;;;;5028709;28;20214;-69
2022/05/23 05:38:59;;;;;;;3.47;1.65;;;;;;;;;;5023334;28;20253;-69
2022/05/23 05:41:28;;;;;;;2.83;1.77;;;;;;;;;;5023433;28;20269;-69
2022/05/23 05:44:03;;;;;;;2.30;1.77;;;;;;;;;;5022932;28;20187;-69
2022/05/23 05:46:31;;;;;;;5.38;1.90;;;;;;;;;;5024188;28;20255;-67
2022/05/23 05:48:59;;;;;;;2.53;1.80;;;;;;;;;;5023924;28;20202;-69
2022/05/23 05:51:26;;;;;;;4.50;2.00;;;;;;;;;;5006632;28;20544;-68
2022/05/23 05:53:52;;;;;;;1.75;1.60;;;;;;;;;;5023956;28;20186;-68
2022/05/23 05:56:19;;;;;;;2.28;1.90;;;;;;;;;;5027591;28;20206;-68
2022/05/23 05:58:45;;;;;;;3.97;2.10;;;;;;;;;;5023520;28;20301;-69
2022/05/23 06:01:11;;;;;;;6.18;2.22;;;;;;;;;;5024316;28;20207;-67
2022/05/23 06:03:37;;;;;;;3.05;2.25;;;;;;;;;;5023059;28;20183;-68
2022/05/23 06:11:33;;;;;;;2.90;2.50;;;;;;;;;;5024214;28;20190;-67
2022/05/23 06:14:00;;;;;;;3.10;2.67;;;;;;;;;;5027611;28;20562;-69
2022/05/23 06:16:27;;;;;;;5.40;2.50;;;;;;;;;;5023702;28;20599;-69
2022/05/23 06:18:53;;;;;;;4.47;2.70;;;;;;;;;;5023683;28;20203;-67
2022/05/23 06:21:20;;;;;;;2.50;2.30;;;;;;;;;;5023281;28;20183;-67
2022/05/23 06:23:46;;;;;;;3.55;2.90;;;;;;;;;;5022876;28;20275;-68
2022/05/23 06:26:14;;;;;;;5.03;2.60;;;;;;;;;;5033251;28;20183;-68
2022/05/23 06:28:40;;;;;;;2.90;2.70;;;;;;;;;;5038842;28;20681;-68
2022/05/23 06:31:06;;;;;;;4.60;2.95;;;;;;;;;;5031367;28;20203;-69
2022/05/23 06:33:32;;;;;;;4.68;2.97;;;;;;;;;;5027296;28;20198;-69
2022/05/23 06:35:58;;;;;;;5.47;3.00;;;;;;;;;;5026854;28;20674;-68
2022/05/23 06:38:25;;;;;;;7.90;3.33;;;;;;;;;;5027385;28;20238;-68
2022/05/23 06:40:52;;;;;;;6.35;3.45;;;;;;;;;;5030405;28;20187;-68
2022/05/23 06:43:18;;;;;;;4.10;3.25;;;;;;;;;;5008726;28;20219;-68
2022/05/23 06:45:45;;;;;;;6.25;3.30;;;;;;;;;;5026234;28;20270;-68
2022/05/23 06:48:11;;;;;;;4.18;3.30;;;;;;;;;;5026852;28;20202;-68
2022/05/23 06:50:37;;;;;;;4.80;2.70;;;;;;;;;;5026757;28;20854;-68
2022/05/23 06:53:03;;;;;;;4.03;2.95;;;;;;;;;;5026752;28;20236;-67
2022/05/23 06:55:29;;;;;;;4.05;2.80;;;;;;;;;;5033372;28;20187;-68
2022/05/23 06:57:56;;;;;;;4.68;2.90;;;;;;;;;;5030812;28;20305;-68
2022/05/23 07:00:22;;;;;;;3.17;2.90;;;;;;;;;;5029153;28;20187;-68
2022/05/23 07:02:48;;;;;;;3.58;3.03;;;;;;;;;;5026335;28;20225;-69
2022/05/23 07:13:28;;;;;;;3.20;2.90;;;;;;;;;;5042584;28;20632;-68
2022/05/23 07:15:55;;;;;;;3.10;2.80;;;;;;;;;;5038140;28;20190;-68
2022/05/23 07:18:22;;;;;;;4.22;3.00;;;;;;;;;;5035485;28;20692;-68
2022/05/23 07:20:49;;;;;;;3.25;2.95;;;;;;;;;;5039430;28;20266;-68
2022/05/23 07:23:15;;;;;;;5.53;3.10;;;;;;;;;;5043567;28;20178;-69
2022/05/23 07:25:42;;;;;;;3.85;3.42;;;;;;;;;;5025462;28;20187;-68
2022/05/23 07:28:08;;;;;;;3.92;3.40;;;;;;;;;;5029141;28;20591;-68
2022/05/23 07:30:34;;;;;;;6.25;3.45;;;;;;;;;;5038360;28;20177;-69
2022/05/23 07:33:00;;;;;;;6.28;3.50;;;;;;;;;;5037132;28;20217;-68
2022/05/23 07:35:26;;;;;;;6.32;3.70;;;;;;;;;;5031876;28;20648;-69
2022/05/23 07:37:53;;;;;;;4.20;3.80;;;;;;;;;;5029047;28;20233;-69
2022/05/23 07:40:20;;;;;;;5.28;3.17;;;;;;;;;;5037244;28;20220;-67
2022/05/23 07:42:47;;;;;;;4.75;3.58;;;;;;;;;;5038540;28;20190;-68
2022/05/23 07:45:14;;;;;;;6.50;3.55;;;;;;;;;;5036482;28;20261;-68
2022/05/23 07:47:40;;;;;;;4.05;3.63;;;;;;;;;;5025291;28;20213;-68
2022/05/23 07:50:07;;;;;;;3.53;3.22;;;;;;;;;;5025589;28;20191;-70
2022/05/23 07:52:33;;;;;;;4.57;3.53;;;;;;;;;;5034399;28;20194;-70
2022/05/23 08:00:34;;;;;;;4.47;3.40;;;;;;;;;;5042013;28;20269;-67
2022/05/23 08:03:00;;;;;;;4.38;3.80;;;;;;;;;;5034152;28;20613;-67
2022/05/23 08:05:27;;;;;;;6.32;4.28;;;;;;;;;;5027705;28;20210;-68
2022/05/23 08:07:53;;;;;;;4.60;4.05;;;;;;;;;;5036563;28;20235;-67
2022/05/23 08:10:19;;;;;;;3.83;3.47;;;;;;;;;;5027752;28;20626;-71
2022/05/23 08:12:47;;;;;;;4.43;3.63;;;;;;;;;;5024747;28;20242;-68
2022/05/23 08:15:13;;;;;;;7.15;4.22;;;;;;;;;;5033788;28;20244;-68
2022/05/23 08:17:39;;;;;;;5.22;4.05;;;;;;;;;;5034822;28;20216;-69
2022/05/23 08:20:06;;;;;;;4.22;3.80;;;;;;;;;;5030620;28;20190;-68
2022/05/23 08:22:32;;;;;;;5.05;4.47;;;;;;;;;;5035665;28;20711;-70
2022/05/23 08:24:58;;;;;;;6.05;4.45;;;;;;;;;;5034550;28;20192;-67
2022/05/23 08:27:24;;;;;;;4.65;4.25;;;;;;;;;;5007930;28;20552;-67
2022/05/23 08:29:52;;;;;;;4.45;4.05;;;;;;;;;;5017781;28;20409;-68
2022/05/23 08:32:18;;;;;;;5.72;4.80;;;;;;;;;;5020141;28;20186;-69
2022/05/23 08:34:45;;;;;;;4.28;3.88;;;;;;;;;;5027986;28;20272;-68
2022/05/23 08:37:11;;;;;;;6.30;5.03;;;;;;;;;;5030597;28;20245;-67
2022/05/23 08:39:37;;;;;;;6.03;4.30;;;;;;;;;;5035945;28;20229;-66
2022/05/23 08:42:05;;;;;;;5.43;4.30;;;;;;;;;;5027052;28;21187;-68
2022/05/23 08:44:35;;;;;;;7.35;4.60;;;;;;;;;;5024183;28;20561;-67
2022/05/23 08:47:01;;;;;;;5.00;4.47;;;;;;;;;;5023182;28;20694;-67
2022/05/23 08:49:27;;;;;;;5.82;4.55;;;;;;;;;;5031154;28;20288;-68
2022/05/23 08:52:03;;;;;;;4.20;3.80;;;;;;;;;;5030942;28;20266;-67
2022/05/23 08:54:45;;;;;;;5.13;4.70;;;;;;;;;;5024902;28;20645;-67
2022/05/23 08:57:17;;;;;;;6.20;4.68;;;;;;;;;;5023692;28;20580;-67
2022/05/23 08:59:44;;;;;;;6.93;4.47;;;;;;;;;;5030316;28;20186;-68
2022/05/23 09:02:14;;;;;;;7.10;4.00;;;;;;;;;;5023936;28;20186;-67
2022/05/23 09:04:45;;;;;;;5.47;4.13;;;;;;;;;;5030058;28;20700;-69
2022/05/23 09:07:14;;;;;;;7.38;4.13;;;;;;;;;;5023800;28;20186;-69
2022/05/23 09:09:40;;;;;;;5.00;3.72;;;;;;;;;;5023659;28;20186;-68
2022/05/23 09:12:12;;;;;;;4.38;3.70;;;;;;;;;;5024064;28;20248;-67
2022/05/23 09:14:38;;;;;;;4.18;3.53;;;;;;;;;;5005464;28;20610;-68
2022/05/23 09:17:07;;;;;;;4.93;3.58;;;;;;;;;;5023725;28;20214;-67
2022/05/23 09:19:43;;;;;;;4.55;3.95;;;;;;;;;;5023656;28;20293;-68
2022/05/23 09:22:13;;;;;;;3.70;3.30;;;;;;;;;;5029046;28;20185;-68
2022/05/23 09:24:51;;;;;;;4.28;3.58;;;;;;;;;;5031456;28;20705;-67
2022/05/23 09:27:26;;;;;;;6.78;3.60;;;;;;;;;;5013461;28;20191;-68
2022/05/23 09:29:54;;;;;;;6.65;3.45;;;;;;;;;;5005633;28;20205;-68
2022/05/23 09:32:23;;;;;;;4.53;3.22;;;;;;;;;;5024868;28;20251;-68
2022/05/23 09:35:00;;;;;;;3.92;3.15;;;;;;;;;;5023107;28;20198;-70
2022/05/23 09:37:38;;;;;;;5.00;3.22;;;;;;;;;;5023402;28;20222;-67
2022/05/23 09:40:05;;;;;;;3.67;3.30;;;;;;;;;;5029872;28;20654;-67
2022/05/23 09:48:09;;;;;;;3.85;3.00;;;;;;;;;;5023357;28;20300;-68
2022/05/23 09:50:37;;;;;;;3.65;3.35;;;;;;;;;;5023588;28;20619;-68
2022/05/23 09:53:03;;;;;;;4.63;3.33;;;;;;;;;;5023735;28;20199;-67
2022/05/23 09:55:33;;;;;;;4.13;3.13;;;;;;;;;;5022740;28;20194;-67
2022/05/23 09:58:01;;;;;;;4.05;2.97;;;;;;;;;;5028942;28;20225;-68
2022/05/23 10:00:35;;;;;;;5.15;2.70;;;;;;;;;;5033174;28;20546;-68
2022/05/23 10:03:03;;;;;;;3.88;2.95;;;;;;;;;;5031254;28;20187;-68
2022/05/23 10:05:37;;;;;;;4.68;2.60;;;;;;;;;;5014043;28;20192;-67
2022/05/23 10:08:04;;;;;;;3.60;2.92;;;;;;;;;;5030024;28;20689;-69
2022/05/23 10:10:30;;;;;;;5.78;3.42;;;;;;;;;;5026986;28;20225;-68
2022/05/23 10:13:17;;;;;;;4.60;2.90;;;;;;;;;;5031105;28;20657;-67
2022/05/23 10:15:45;;;;;;;4.55;3.00;;;;;;;;;;5034327;28;20218;-67
2022/05/23 10:18:18;;;;;;;5.55;3.10;;;;;;;;;;5026797;28;20195;-69
2022/05/23 10:20:44;;;;;;;5.47;3.47;;;;;;;;;;5026947;28;20724;-68
2022/05/23 10:23:20;;;;;;;3.70;3.22;;;;;;;;;;5028023;28;20182;-69
2022/05/23 10:26:04;;;;;;;4.43;3.42;;;;;;;;;;5029409;28;20642;-69
2022/05/23 10:28:36;;;;;;;3.47;3.17;;;;;;;;;;5027863;28;20582;-69
2022/05/23 10:31:23;;;;;;;3.67;3.13;;;;;;;;;;5029604;28;20178;-68
2022/05/23 10:33:54;;;;;;;5.75;3.25;;;;;;;;;;5009699;28;20202;-68
2022/05/23 10:36:24;;;;;;;6.20;3.33;;;;;;;;;;5028466;28;20275;-69
2022/05/23 10:42:12;;;;;;;3.97;3.10;;;;;;;;;;4981206;28;20183;-67
2022/05/23 10:44:41;;;;;;;3.78;3.15;;;;;;;;;;5021786;28;20187;-67
2022/05/23 10:47:18;;;;;;;4.72;2.95;;;;;;;;;;5027783;28;20198;-67
2022/05/23 10:49:47;;;;;;;4.72;3.20;;;;;;;;;;5027600;28;20187;-68
2022/05/23 10:52:19;;;;;;;3.45;3.00;;;;;;;;;;5026593;28;20232;-70
2022/05/23 10:55:04;;;;;;;7.50;3.40;;;;;;;;;;5033389;28;20191;-67
2022/05/23 10:57:33;;;;;;;3.60;2.83;;;;;;;;;;5027255;28;20238;-69
2022/05/23 11:00:02;;;;;;;4.80;2.50;;;;;;;;;;5026476;28;20191;-69
2022/05/23 11:02:28;;;;;;;4.78;2.80;;;;;;;;;;5036664;28;20178;-68
2022/05/23 11:05:08;;;;;;;4.93;2.85;;;;;;;;;;5025942;28;20617;-67
2022/05/23 11:07:34;;;;;;;4.35;2.88;;;;;;;;;;5030719;28;20218;-68
2022/05/23 11:10:00;;;;;;;6.45;2.90;;;;;;;;;;5027358;28;20584;-67
2022/05/23 11:12:26;;;;;;;3.38;2.53;;;;;;;;;;5031287;28;20245;-67
2022/05/23 11:14:58;;;;;;;3.63;3.00;;;;;;;;;;5032633;28;20195;-68
2022/05/23 11:17:43;;;;;;;5.05;2.97;;;;;;;;;;5028845;28;20198;-68
2022/05/23 11:20:12;;;;;;;3.40;2.88;;;;;;;;;;5026052;28;20183;-68
2022/05/23 11:22:44;;;;;;;5.43;2.90;;;;;;;;;;5033499;28;20179;-68
2022/05/23 11:25:33;;;;;;;3.28;2.97;;;;;;;;;;5027041;28;20191;-69
2022/05/23 11:34:09;;;;;;;3.95;2.88;;;;;;;;;;5025372;28;20181;-69
2022/05/23 11:39:43;;;;;;;3.75;3.10;;;;;;;;;;4937860;28;20257;-70
2022/05/23 11:42:11;;;;;;;3.13;2.72;;;;;;;;;;5027143;28;20520;-69
2022/05/23 11:44:43;;;;;;;3.70;2.70;;;;;;;;;;5031487;28;20336;-67
2022/05/23 11:47:12;;;;;;;4.18;2.42;;;;;;;;;;5033661;28;20193;-67
2022/05/23 11:49:41;;;;;;;2.97;2.50;;;;;;;;;;5026357;28;20201;-67
2022/05/23 11:52:16;;;;;;;2.70;2.17;;;;;;;;;;5030099;28;20290;-69
2022/05/23 11:54:42;;;;;;;3.45;2.40;;;;;;;;;;5028101;28;20189;-68
2022/05/23 11:57:16;;;;;;;3.30;2.30;;;;;;;;;;5024879;28;20290;-69
2022/05/23 11:59:45;;;;;;;19.05;3.75;;;;;;;;;;5035234;28;20585;-67
2022/05/23 12:02:20;;;;;;;5.85;2.50;;;;;;;;;;5037219;28;20190;-67
2022/05/23 12:04:49;;;;;;;2.58;2.28;;;;;;;;;;5026282;28;20197;-68
2022/05/23 12:07:33;;;;;;;3.67;2.65;;;;;;;;;;5029002;28;20186;-68
2022/05/23 12:10:18;;;;;;;3.00;2.15;;;;;;;;;;5025214;28;20218;-66
2022/05/23 12:12:48;;;;;;;3.13;1.90;;;;;;;;;;5025086;28;20183;-66
2022/05/23 12:15:33;;;;;;;3.60;2.33;;;;;;;;;;5029188;28;20270;-67
2022/05/23 12:18:03;;;;;;;5.00;2.28;;;;;;;;;;5029560;28;20214;-69
2022/05/23 12:20:31;;;;;;;4.25;1.90;;;;;;;;;;5025917;28;20186;-66
2022/05/23 12:23:18;;;;;;;2.25;1.85;;;;;;;;;;5032611;28;20293;-69
2022/05/23 12:26:04;;;;;;;3.13;2.10;;;;;;;;;;5016139;28;20190;-68
2022/05/23 12:28:41;;;;;;;2.35;1.70;;;;;;;;;;5031124;28;20214;-67
2022/05/23 12:31:11;;;;;;;2.90;1.80;;;;;;;;;;5030869;28;20711;-67
2022/05/23 12:33:41;;;;;;;5.50;2.05;;;;;;;;;;5026038;28;20187;-69
2022/05/23 12:36:10;;;;;;;3.67;1.90;;;;;;;;;;5028297;28;20194;-69
2022/05/23 12:38:36;;;;;;;3.78;1.92;;;;;;;;;;5036673;28;20296;-68
2022/05/23 12:41:27;;;;;;;4.80;2.03;;;;;;;;;;5024773;28;20178;-68
2022/05/23 12:43:56;;;;;;;4.28;1.80;;;;;;;;;;5023850;28;20183;-68
2022/05/23 12:46:40;;;;;;;1.85;1.70;;;;;;;;;;5028626;28;20189;-68
2022/05/23 12:49:14;;;;;;;2.63;1.52;;;;;;;;;;5027092;28;20210;-69
2022/05/23 12:51:43;;;;;;;5.07;1.83;;;;;;;;;;5034200;28;20591;-67
2022/05/23 12:54:18;;;;;;;3.33;1.85;;;;;;;;;;5034607;28;20178;-66
2022/05/23 12:56:52;;;;;;;3.13;2.00;;;;;;;;;;5036787;28;20202;-68
2022/05/23 12:59:50;;;;;;;2.90;1.70;;;;;;;;;;5030339;28;20215;-66
2022/05/23 13:02:25;;;;;;;7.22;2.05;;;;;;;;;;4970327;28;20198;-68
2022/05/23 13:04:56;;;;;;;2.13;1.85;;;;;;;;;;5026013;28;20225;-68
2022/05/23 13:07:37;;;;;;;3.22;2.00;;;;;;;;;;5025177;28;20197;-68
2022/05/23 13:10:07;;;;;;;2.17;1.77;;;;;;;;;;5030161;28;20201;-67
2022/05/23 13:12:44;;;;;;;2.22;1.90;;;;;;;;;;5039732;28;20197;-67
2022/05/23 13:15:10;;;;;;;2.55;1.90;;;;;;;;;;5027517;28;20210;-68
2022/05/23 13:17:43;;;;;;;2.22;1.65;;;;;;;;;;5027057;28;20757;-67
2022/05/23 13:23:16;;;;;;;2.20;1.65;;;;;;;;;;5023887;28;20190;-67
2022/05/23 13:25:43;;;;;;;2.75;1.67;;;;;;;;;;5023536;28;20178;-67
2022/05/23 13:28:10;;;;;;;2.60;1.42;;;;;;;;;;5032860;28;20199;-68
2022/05/23 13:30:37;;;;;;;3.88;2.05;;;;;;;;;;5036887;28;20197;-68
2022/05/23 13:33:26;;;;;;;2.35;1.75;;;;;;;;;;5030313;28;20190;-69
2022/05/23 13:35:57;;;;;;;5.25;1.58;;;;;;;;;;5030268;28;20185;-67
2022/05/23 13:38:27;;;;;;;5.70;2.05;;;;;;;;;;5030123;28;20202;-68
2022/05/23 13:40:54;;;;;;;3.08;1.58;;;;;;;;;;5033660;28;20191;-69
2022/05/23 13:43:25;;;;;;;2.03;1.67;;;;;;;;;;5041646;28;20183;-67
2022/05/23 13:46:00;;;;;;;2.30;1.85;;;;;;;;;;5018145;28;20270;-67
2022/05/23 13:48:31;;;;;;;2.75;1.80;;;;;;;;;;5020063;28;20705;-68
2022/05/23 13:51:00;;;;;;;6.70;2.20;;;;;;;;;;5033798;28;20642;-68
2022/05/23 13:53:30;;;;;;;3.28;2.00;;;;;;;;;;5027646;28;20181;-67
2022/05/23 13:55:56;;;;;;;3.63;1.80;;;;;;;;;;5027194;28;20183;-67
2022/05/23 13:58:24;;;;;;;3.90;1.95;;;;;;;;;;5032300;28;20219;-67
2022/05/23 14:00:56;;;;;;;4.03;1.80;;;;;;;;;;5038632;28;20690;-68
2022/05/23 14:03:28;;;;;;;2.88;1.80;;;;;;;;;;5032757;28;20187;-67
2022/05/23 14:05:55;;;;;;;3.10;1.88;;;;;;;;;;5020258;28;20641;-67
2022/05/23 14:08:33;;;;;;;2.40;1.95;;;;;;;;;;5039126;28;20206;-68
2022/05/23 14:11:00;;;;;;;3.45;1.88;;;;;;;;;;5032842;28;20179;-67
2022/05/23 14:13:29;;;;;;;6.30;2.35;;;;;;;;;;5038486;28;20269;-67
2022/05/23 14:15:55;;;;;;;2.55;1.95;;;;;;;;;;5034600;28;20286;-67
2022/05/23 14:18:24;;;;;;;4.45;2.05;;;;;;;;;;5035838;28;20293;-67
2022/05/23 14:20:51;;;;;;;3.30;2.20;;;;;;;;;;5036125;28;20190;-67
2022/05/23 14:23:17;;;;;;;4.88;2.03;;;;;;;;;;5041317;28;20287;-67
2022/05/23 14:25:44;;;;;;;3.17;2.13;;;;;;;;;;5037161;28;20662;-67
2022/05/23 14:28:24;;;;;;;3.33;2.92;;;;;;;;;;5037154;28;20206;-67
2022/05/23 14:30:52;;;;;;;6.93;4.80;;;;;;;;;;5033568;28;21173;-66
2022/05/23 14:33:27;;;;;;;8.13;3.17;;;;;;;;;;5037267;28;20193;-67
2022/05/23 14:36:09;;;;;;;5.68;2.20;;;;;;;;;;5033958;28;20191;-68
2022/05/23 14:38:38;;;;;;;5.55;2.22;;;;;;;;;;5035352;28;20293;-69
2022/05/23 14:41:18;;;;;;;4.20;2.47;;;;;;;;;;5034293;28;20201;-69
2022/05/23 14:43:45;;;;;;;6.38;2.55;;;;;;;;;;5028304;28;20183;-67
2022/05/23 14:46:16;;;;;;;3.58;2.20;;;;;;;;;;5033726;28;20253;-70
2022/05/23 14:48:52;;;;;;;2.47;2.25;;;;;;;;;;5032208;28;20198;-69
2022/05/23 14:51:25;;;;;;;2.40;2.00;;;;;;;;;;5034979;28;20194;-68
2022/05/23 14:56:44;;;;;;;4.47;2.40;;;;;;;;;;5033314;28;20252;-65
2022/05/23 15:02:01;;;;;;;2.40;2.20;;;;;;;;;;5041382;28;20197;-69
2022/05/23 15:04:28;;;;;;;3.15;2.15;;;;;;;;;;5032590;28;20213;-68
2022/05/23 15:06:55;;;;;;;3.33;2.38;;;;;;;;;;5037197;28;20183;-67
2022/05/23 15:09:21;;;;;;;3.15;2.30;;;;;;;;;;5029352;28;20203;-68
2022/05/23 15:11:47;;;;;;;4.28;2.40;;;;;;;;;;5033232;28;20194;-69
2022/05/23 15:14:15;;;;;;;2.80;2.22;;;;;;;;;;5036367;28;20198;-68
2022/05/23 15:16:42;;;;;;;3.40;2.10;;;;;;;;;;5040892;28;20206;-68
2022/05/23 15:19:08;;;;;;;3.42;2.30;;;;;;;;;;5032018;28;20214;-68
2022/05/23 15:21:35;;;;;;;3.72;2.65;;;;;;;;;;5035956;28;20179;-69
2022/05/23 15:24:01;;;;;;;4.40;2.28;;;;;;;;;;5039655;28;20183;-68
2022/05/23 15:26:30;;;;;;;3.42;2.10;;;;;;;;;;5020809;28;20650;-68
2022/05/23 15:28:57;;;;;;;2.38;2.05;;;;;;;;;;5025882;28;20608;-68
2022/05/23 15:31:25;;;;;;;2.83;2.63;;;;;;;;;;5036267;28;20199;-68
2022/05/23 15:33:51;;;;;;;4.22;2.40;;;;;;;;;;5036707;28;20202;-67
2022/05/23 15:36:17;;;;;;;4.05;2.40;;;;;;;;;;5028778;28;20222;-67
2022/05/23 15:38:43;;;;;;;4.07;2.33;;;;;;;;;;5028659;28;20210;-68
2022/05/23 15:41:10;;;;;;;4.32;2.42;;;;;;;;;;5031114;28;20183;-67
2022/05/23 15:43:36;;;;;;;3.17;2.50;;;;;;;;;;5036689;28;20433;-69
2022/05/23 15:46:06;;;;;;;2.83;2.35;;;;;;;;;;5033340;28;20704;-69
2022/05/23 15:48:32;;;;;;;3.50;2.00;;;;;;;;;;5031714;28;20210;-67
2022/05/23 15:50:58;;;;;;;3.90;2.30;;;;;;;;;;5038285;28;20229;-68
2022/05/23 15:53:24;;;;;;;4.60;2.42;;;;;;;;;;5035413;28;20549;-69
2022/05/23 15:55:52;;;;;;;3.10;2.20;;;;;;;;;;5029886;28;20179;-69
2022/05/23 15:58:19;;;;;;;2.47;2.10;;;;;;;;;;5028560;28;20234;-67